Airfield :
LOGIN :

Register | Disclaimer

   EN    FR    IT 

 










Legend :    VFR   Marginal VFR   IFR   Intensive IFR   Very Intensive IFR
Visi :
Ceiling :
>= 8 km
>= 3000ft
5 to 8 km
1000 to 3000 ft
1500m to 5 km
500 to 1000 ft
800 to 1500m
200 to 500 ft
< 800m
< 200 ft
Symbols :   Thunderstorms  Fog  Heavy snow  Heavy precipitations  Wind > 20 kt
SIGMETs :     Misc.  Thunderstorms  Icing  Turbulence  Mountain Waves  Volcanic Ashes






- Airport Elevation : 162 ft
- IATA code : BOD


LFBD - Bordeaux / Merignac

CURRENT METAR :
  • 160500Z AUTO 24005KT 4400 1800 BR OVC004 14/14 Q1007 TEMPO 1500 DZRA

EXPIRED METARs :
  • 160430Z AUTO 24005KT 3500 DZ BR BKN005 OVC012 14/14 Q1007 TEMPO 1500 DZRA
  • 160400Z AUTO 26004KT 5000 -RADZ BR BKN006 OVC013 14/14 Q1008 TEMPO 1500 DZRA OVC003
  • 160330Z AUTO 25004KT 9999 OVC006 14/14 Q1008 TEMPO 1500 DZRA OVC003
  • 160300Z AUTO 24005KT 9999 OVC006 14/14 Q1008 TEMPO 1500 DZRA OVC003
  • 160230Z AUTO 22004KT 6000 -RA BKN005/// BKN018/// OVC029/// ///TCU 14/13 Q1008 TEMPO 1500 DZRA OVC003

TAF TAF LFBD
Valid from the 16 at 00:00 until the 17 at 06:00 UTC


152300Z 1600/1706 22005KT 9999 OVC020 TX16/1613Z TN12/1600Z
TEMPO 1600/1610 4000 RA OVC004
PROB30 1600/1606 1500 DZRA OVC003
BECMG 1608/1610 26015G25KT NSW BKN020
BECMG 1618/1620 26010KT
ATIS : +33 5 57 92 81 04



MET'MAP, your aeronautical weather chart ! - Copyright ORBIFLY December 2007 - Disclaimer

ORBIFLY MET'MAP TEAM :

Programming & Development : Alexandra Zaïnal
Concept & original design : Baudouin d'Aumeries
Assistance for programming : Marc-Olivier Méhu
Technical & hardware support : Manuel Goepfert

Contact : metmap@orbifly.com




SOURCES & CREDITS :

   NOAA